sensor_id;sensor_type;location;lat;lon;timestamp;pressure;altitude;pressure_sealevel;temperature;humidity
52953;BME280;38815;55.932;-3.232;2022-11-02T00:02:12;99340.66;;;17.79;63.02
52953;BME280;38815;55.932;-3.232;2022-11-02T00:04:37;99350.41;;;17.78;63.39
52953;BME280;38815;55.932;-3.232;2022-11-02T00:07:02;99348.94;;;17.77;63.36
52953;BME280;38815;55.932;-3.232;2022-11-02T00:09:28;99349.50;;;17.76;63.22
52953;BME280;38815;55.932;-3.232;2022-11-02T00:11:53;99350.03;;;17.74;63.12
52953;BME280;38815;55.932;-3.232;2022-11-02T00:14:18;99352.69;;;17.72;63.11
52953;BME280;38815;55.932;-3.232;2022-11-02T00:16:43;99358.31;;;17.72;62.91
52953;BME280;38815;55.932;-3.232;2022-11-02T00:19:09;99363.00;;;17.70;62.95
52953;BME280;38815;55.932;-3.232;2022-11-02T00:21:34;99370.69;;;17.69;62.89
52953;BME280;38815;55.932;-3.232;2022-11-02T00:24:00;99381.25;;;17.69;63.14
52953;BME280;38815;55.932;-3.232;2022-11-02T00:26:26;99384.63;;;17.67;63.06
52953;BME280;38815;55.932;-3.232;2022-11-02T00:28:52;99376.69;;;17.66;62.81
52953;BME280;38815;55.932;-3.232;2022-11-02T00:31:17;99385.72;;;17.64;62.56
52953;BME280;38815;55.932;-3.232;2022-11-02T00:33:42;99387.81;;;17.64;62.74
52953;BME280;38815;55.932;-3.232;2022-11-02T00:36:08;99392.69;;;17.63;62.63
52953;BME280;38815;55.932;-3.232;2022-11-02T00:38:33;99393.97;;;17.62;62.84
52953;BME280;38815;55.932;-3.232;2022-11-02T00:40:58;99400.19;;;17.60;62.80
52953;BME280;38815;55.932;-3.232;2022-11-02T00:43:23;99395.88;;;17.59;62.78
52953;BME280;38815;55.932;-3.232;2022-11-02T00:45:49;99407.72;;;17.58;62.71
52953;BME280;38815;55.932;-3.232;2022-11-02T00:48:14;99402.06;;;17.58;62.72
52953;BME280;38815;55.932;-3.232;2022-11-02T00:50:39;99395.47;;;17.55;62.56
52953;BME280;38815;55.932;-3.232;2022-11-02T00:53:05;99399.06;;;17.56;62.42
52953;BME280;38815;55.932;-3.232;2022-11-02T00:55:30;99404.50;;;17.54;62.18
52953;BME280;38815;55.932;-3.232;2022-11-02T00:57:55;99409.38;;;17.53;62.31
52953;BME280;38815;55.932;-3.232;2022-11-02T01:00:21;99414.84;;;17.51;62.22
52953;BME280;38815;55.932;-3.232;2022-11-02T01:02:47;99414.06;;;17.51;62.36
52953;BME280;38815;55.932;-3.232;2022-11-02T01:05:12;99410.28;;;17.48;62.23
52953;BME280;38815;55.932;-3.232;2022-11-02T01:07:37;99418.75;;;17.48;62.33
52953;BME280;38815;55.932;-3.232;2022-11-02T01:10:03;99413.69;;;17.47;62.54
52953;BME280;38815;55.932;-3.232;2022-11-02T01:12:29;99427.78;;;17.47;62.51
52953;BME280;38815;55.932;-3.232;2022-11-02T01:14:54;99432.66;;;17.46;62.10
52953;BME280;38815;55.932;-3.232;2022-11-02T01:17:19;99419.09;;;17.45;62.27
52953;BME280;38815;55.932;-3.232;2022-11-02T01:19:45;99424.72;;;17.45;62.33
52953;BME280;38815;55.932;-3.232;2022-11-02T01:22:10;99421.53;;;17.41;62.42
52953;BME280;38815;55.932;-3.232;2022-11-02T01:24:36;99434.50;;;17.44;62.43
52953;BME280;38815;55.932;-3.232;2022-11-02T01:27:01;99450.66;;;17.43;62.12
52953;BME280;38815;55.932;-3.232;2022-11-02T01:29:26;99444.28;;;17.43;62.17
52953;BME280;38815;55.932;-3.232;2022-11-02T01:31:51;99444.81;;;17.41;62.47
52953;BME280;38815;55.932;-3.232;2022-11-02T01:34:19;99434.84;;;17.40;62.06
52953;BME280;38815;55.932;-3.232;2022-11-02T01:36:45;99445.38;;;17.40;62.30
52953;BME280;38815;55.932;-3.232;2022-11-02T01:39:12;99448.75;;;17.38;61.92
52953;BME280;38815;55.932;-3.232;2022-11-02T01:41:37;99450.84;;;17.38;62.21
52953;BME280;38815;55.932;-3.232;2022-11-02T01:44:03;99447.25;;;17.37;62.32
52953;BME280;38815;55.932;-3.232;2022-11-02T01:46:39;99456.25;;;17.36;62.39
52953;BME280;38815;55.932;-3.232;2022-11-02T01:49:07;99466.78;;;17.35;62.20
52953;BME280;38815;55.932;-3.232;2022-11-02T01:51:50;99477.84;;;17.33;62.00
52953;BME280;38815;55.932;-3.232;2022-11-02T01:54:20;99493.25;;;17.32;62.05
52953;BME280;38815;55.932;-3.232;2022-11-02T01:56:48;99497.34;;;17.31;62.08
52953;BME280;38815;55.932;-3.232;2022-11-02T01:59:16;99507.88;;;17.31;61.90
52953;BME280;38815;55.932;-3.232;2022-11-02T02:01:42;99514.09;;;17.29;62.11
52953;BME280;38815;55.932;-3.232;2022-11-02T02:04:07;99521.00;;;17.28;61.86
52953;BME280;38815;55.932;-3.232;2022-11-02T02:06:34;99511.06;;;17.27;62.05
52953;BME280;38815;55.932;-3.232;2022-11-02T02:09:00;99515.94;;;17.27;62.17
52953;BME280;38815;55.932;-3.232;2022-11-02T02:13:53;99529.06;;;17.24;61.91
52953;BME280;38815;55.932;-3.232;2022-11-02T02:16:21;99524.75;;;17.23;61.96
52953;BME280;38815;55.932;-3.232;2022-11-02T02:18:57;99535.25;;;17.23;61.84
52953;BME280;38815;55.932;-3.232;2022-11-02T02:24:04;99538.41;;;17.19;61.56
52953;BME280;38815;55.932;-3.232;2022-11-02T02:26:46;99548.19;;;17.18;61.76
52953;BME280;38815;55.932;-3.232;2022-11-02T02:29:21;99540.28;;;17.17;61.59
52953;BME280;38815;55.932;-3.232;2022-11-02T02:34:18;99546.47;;;17.15;61.95
52953;BME280;38815;55.932;-3.232;2022-11-02T02:39:40;99540.09;;;17.15;61.73
52953;BME280;38815;55.932;-3.232;2022-11-02T02:42:11;99528.06;;;17.14;61.64
52953;BME280;38815;55.932;-3.232;2022-11-02T02:44:40;99524.50;;;17.14;61.72
52953;BME280;38815;55.932;-3.232;2022-11-02T02:47:10;99532.97;;;17.14;61.71
52953;BME280;38815;55.932;-3.232;2022-11-02T02:49:40;99535.00;;;17.13;61.56
52953;BME280;38815;55.932;-3.232;2022-11-02T02:52:07;99544.75;;;17.12;61.85
52953;BME280;38815;55.932;-3.232;2022-11-02T02:54:35;99539.13;;;17.12;61.54
52953;BME280;38815;55.932;-3.232;2022-11-02T02:57:05;99534.03;;;17.11;61.68
52953;BME280;38815;55.932;-3.232;2022-11-02T02:59:44;99532.56;;;17.10;61.84
52953;BME280;38815;55.932;-3.232;2022-11-02T03:02:31;99527.69;;;17.10;61.59
52953;BME280;38815;55.932;-3.232;2022-11-02T03:04:55;99528.97;;;17.09;61.84
52953;BME280;38815;55.932;-3.232;2022-11-02T03:07:38;99540.78;;;17.08;62.01
52953;BME280;38815;55.932;-3.232;2022-11-02T03:15:08;99542.09;;;17.07;61.58
52953;BME280;38815;55.932;-3.232;2022-11-02T03:17:55;99541.91;;;17.05;61.83
52953;BME280;38815;55.932;-3.232;2022-11-02T03:20:27;99554.47;;;17.04;61.60
52953;BME280;38815;55.932;-3.232;2022-11-02T03:30:13;99557.44;;;16.98;61.85
52953;BME280;38815;55.932;-3.232;2022-11-02T03:35:10;99563.63;;;16.97;61.90
52953;BME280;38815;55.932;-3.232;2022-11-02T03:37:40;99569.25;;;16.97;61.68
52953;BME280;38815;55.932;-3.232;2022-11-02T03:40:10;99564.16;;;16.95;61.91
52953;BME280;38815;55.932;-3.232;2022-11-02T03:42:38;99571.88;;;16.95;61.85
52953;BME280;38815;55.932;-3.232;2022-11-02T03:45:06;99564.72;;;16.94;61.87
52953;BME280;38815;55.932;-3.232;2022-11-02T03:47:33;99573.16;;;16.94;61.83
52953;BME280;38815;55.932;-3.232;2022-11-02T03:49:59;99577.28;;;16.93;61.68
52953;BME280;38815;55.932;-3.232;2022-11-02T03:52:27;99577.28;;;16.93;61.83
52953;BME280;38815;55.932;-3.232;2022-11-02T03:55:02;99579.34;;;16.92;61.86
52953;BME280;38815;55.932;-3.232;2022-11-02T03:57:39;99594.19;;;16.93;61.68
52953;BME280;38815;55.932;-3.232;2022-11-02T04:00:11;99596.78;;;16.91;61.66
52953;BME280;38815;55.932;-3.232;2022-11-02T04:02:37;99604.47;;;16.90;61.59
52953;BME280;38815;55.932;-3.232;2022-11-02T04:05:04;99595.84;;;16.88;61.59
52953;BME280;38815;55.932;-3.232;2022-11-02T04:07:31;99597.13;;;16.87;61.59
52953;BME280;38815;55.932;-3.232;2022-11-02T04:10:17;99593.38;;;16.85;61.79
52953;BME280;38815;55.932;-3.232;2022-11-02T04:12:42;99587.00;;;16.84;61.80
52953;BME280;38815;55.932;-3.232;2022-11-02T04:15:26;99601.81;;;16.85;61.51
52953;BME280;38815;55.932;-3.232;2022-11-02T04:17:52;99565.59;;;16.61;61.47
52953;BME280;38815;55.932;-3.232;2022-11-02T04:20:36;99597.28;;;16.82;61.44
52953;BME280;38815;55.932;-3.232;2022-11-02T04:23:01;99596.34;;;16.79;61.60
52953;BME280;38815;55.932;-3.232;2022-11-02T04:25:45;99611.69;;;16.78;61.56
52953;BME280;38815;55.932;-3.232;2022-11-02T04:28:10;99613.78;;;16.78;61.61
52953;BME280;38815;55.932;-3.232;2022-11-02T04:30:35;99609.44;;;16.77;61.70
52953;BME280;38815;55.932;-3.232;2022-11-02T04:33:01;99615.06;;;16.77;61.56
52953;BME280;38815;55.932;-3.232;2022-11-02T04:35:45;99610.75;;;16.76;61.55
52953;BME280;38815;55.932;-3.232;2022-11-02T04:38:10;99612.81;;;16.75;61.37
52953;BME280;38815;55.932;-3.232;2022-11-02T04:40:54;99612.03;;;16.75;61.44
52953;BME280;38815;55.932;-3.232;2022-11-02T04:43:41;99618.97;;;16.74;61.37
52953;BME280;38815;55.932;-3.232;2022-11-02T04:46:06;99624.41;;;16.72;61.53
52953;BME280;38815;55.932;-3.232;2022-11-02T04:48:31;99620.84;;;16.71;61.39
52953;BME280;38815;55.932;-3.232;2022-11-02T04:50:58;99635.66;;;16.72;61.44
52953;BME280;38815;55.932;-3.232;2022-11-02T04:53:24;99636.22;;;16.70;61.39
52953;BME280;38815;55.932;-3.232;2022-11-02T04:55:49;99635.44;;;16.70;61.16
52953;BME280;38815;55.932;-3.232;2022-11-02T04:58:14;99639.56;;;16.69;61.37
52953;BME280;38815;55.932;-3.232;2022-11-02T05:00:39;99651.38;;;16.67;61.58
52953;BME280;38815;55.932;-3.232;2022-11-02T05:03:06;99651.38;;;16.67;61.75
52953;BME280;38815;55.932;-3.232;2022-11-02T05:05:32;99659.06;;;16.67;61.63
52953;BME280;38815;55.932;-3.232;2022-11-02T05:07:57;99654.97;;;16.68;61.42
52953;BME280;38815;55.932;-3.232;2022-11-02T05:10:22;99657.00;;;16.67;61.17
52953;BME280;38815;55.932;-3.232;2022-11-02T05:12:48;99649.84;;;16.66;61.13
52953;BME280;38815;55.932;-3.232;2022-11-02T05:15:19;99671.63;;;16.66;61.46
52953;BME280;38815;55.932;-3.232;2022-11-02T05:17:46;99675.72;;;16.65;61.64
52953;BME280;38815;55.932;-3.232;2022-11-02T05:20:12;99680.19;;;16.60;61.48
52953;BME280;38815;55.932;-3.232;2022-11-02T05:22:40;99683.22;;;16.62;61.22
52953;BME280;38815;55.932;-3.232;2022-11-02T05:25:05;99680.41;;;16.62;61.58
52953;BME280;38815;55.932;-3.232;2022-11-02T05:27:30;99685.28;;;16.62;61.56
52953;BME280;38815;55.932;-3.232;2022-11-02T05:29:56;99682.25;;;16.60;61.42
52953;BME280;38815;55.932;-3.232;2022-11-02T05:32:21;99683.78;;;16.61;61.54
52953;BME280;38815;55.932;-3.232;2022-11-02T05:34:46;99681.69;;;16.61;61.10
52953;BME280;38815;55.932;-3.232;2022-11-02T05:37:11;99673.81;;;16.60;61.31
52953;BME280;38815;55.932;-3.232;2022-11-02T05:39:37;99685.63;;;16.58;61.32
52953;BME280;38815;55.932;-3.232;2022-11-02T05:42:02;99679.22;;;16.58;61.33
52953;BME280;38815;55.932;-3.232;2022-11-02T05:44:28;99674.16;;;16.56;61.40
52953;BME280;38815;55.932;-3.232;2022-11-02T05:46:53;99677.50;;;16.55;61.26
52953;BME280;38815;55.932;-3.232;2022-11-02T05:49:18;99679.56;;;16.54;61.36
52953;BME280;38815;55.932;-3.232;2022-11-02T05:51:43;99683.69;;;16.53;61.40
52953;BME280;38815;55.932;-3.232;2022-11-02T05:54:09;99681.41;;;16.52;61.37
52953;BME280;38815;55.932;-3.232;2022-11-02T05:56:34;99670.16;;;16.52;61.51
52953;BME280;38815;55.932;-3.232;2022-11-02T05:58:59;99670.94;;;16.52;61.15
52953;BME280;38815;55.932;-3.232;2022-11-02T06:01:24;99669.41;;;16.51;61.30
52953;BME280;38815;55.932;-3.232;2022-11-02T06:03:50;99674.28;;;16.51;61.05
52953;BME280;38815;55.932;-3.232;2022-11-02T06:06:15;99670.72;;;16.50;61.22
52953;BME280;38815;55.932;-3.232;2022-11-02T06:08:41;99670.50;;;16.48;61.12
52953;BME280;38815;55.932;-3.232;2022-11-02T06:11:07;99674.09;;;16.49;61.30
52953;BME280;38815;55.932;-3.232;2022-11-02T06:13:33;99674.63;;;16.47;61.63
52953;BME280;38815;55.932;-3.232;2022-11-02T06:15:58;99671.25;;;16.49;61.36
52953;BME280;38815;55.932;-3.232;2022-11-02T06:18:24;99675.56;;;16.50;61.62
52953;BME280;38815;55.932;-3.232;2022-11-02T06:20:49;99667.69;;;16.48;61.52
52953;BME280;38815;55.932;-3.232;2022-11-02T06:23:14;99672.00;;;16.49;61.96
52953;BME280;38815;55.932;-3.232;2022-11-02T06:25:42;99662.06;;;16.48;61.45
52953;BME280;38815;55.932;-3.232;2022-11-02T06:28:08;99657.00;;;16.47;61.27
52953;BME280;38815;55.932;-3.232;2022-11-02T06:30:33;99660.31;;;16.45;61.82
52953;BME280;38815;55.932;-3.232;2022-11-02T06:32:59;99662.91;;;16.43;61.56
52953;BME280;38815;55.932;-3.232;2022-11-02T06:35:24;99674.16;;;16.43;61.44
52953;BME280;38815;55.932;-3.232;2022-11-02T06:37:49;99666.28;;;16.41;61.48
52953;BME280;38815;55.932;-3.232;2022-11-02T06:40:15;99683.91;;;16.42;61.68
52953;BME280;38815;55.932;-3.232;2022-11-02T06:42:40;99691.59;;;16.41;61.72
52953;BME280;38815;55.932;-3.232;2022-11-02T06:45:06;99692.34;;;16.42;61.68
52953;BME280;38815;55.932;-3.232;2022-11-02T06:47:32;99693.66;;;16.41;61.55
52953;BME280;38815;55.932;-3.232;2022-11-02T06:49:58;99676.78;;;16.41;61.38
52953;BME280;38815;55.932;-3.232;2022-11-02T06:52:24;99677.31;;;16.39;61.73
52953;BME280;38815;55.932;-3.232;2022-11-02T06:54:49;99691.94;;;16.38;61.71
52953;BME280;38815;55.932;-3.232;2022-11-02T06:57:14;99669.44;;;16.38;61.34
52953;BME280;38815;55.932;-3.232;2022-11-02T06:59:39;99673.75;;;16.39;61.73
52953;BME280;38815;55.932;-3.232;2022-11-02T07:02:05;99666.41;;;16.36;61.61
52953;BME280;38815;55.932;-3.232;2022-11-02T07:04:30;99672.25;;;16.38;61.66
52953;BME280;38815;55.932;-3.232;2022-11-02T07:06:55;99670.19;;;16.38;61.60
52953;BME280;38815;55.932;-3.232;2022-11-02T07:09:20;99667.38;;;16.38;61.89
52953;BME280;38815;55.932;-3.232;2022-11-02T07:11:46;99663.03;;;16.37;62.24
52953;BME280;38815;55.932;-3.232;2022-11-02T07:14:11;99651.78;;;16.37;62.29
52953;BME280;38815;55.932;-3.232;2022-11-02T07:16:36;99659.13;;;16.40;62.09
52953;BME280;38815;55.932;-3.232;2022-11-02T07:19:01;99661.59;;;16.44;62.39
52953;BME280;38815;55.932;-3.232;2022-11-02T07:21:27;99671.06;;;16.47;62.47
52953;BME280;38815;55.932;-3.232;2022-11-02T07:23:52;99666.38;;;16.49;62.27
52953;BME280;38815;55.932;-3.232;2022-11-02T07:26:18;99670.16;;;16.52;61.99
52953;BME280;38815;55.932;-3.232;2022-11-02T07:28:44;99661.38;;;16.55;62.08
52953;BME280;38815;55.932;-3.232;2022-11-02T07:31:09;99663.31;;;16.60;62.71
52953;BME280;38815;55.932;-3.232;2022-11-02T07:33:34;99661.66;;;16.65;62.80
52953;BME280;38815;55.932;-3.232;2022-11-02T07:36:01;99652.31;;;16.70;62.44
52953;BME280;38815;55.932;-3.232;2022-11-02T07:38:26;99645.06;;;16.74;62.02
52953;BME280;38815;55.932;-3.232;2022-11-02T07:40:51;99654.69;;;16.79;62.64
52953;BME280;38815;55.932;-3.232;2022-11-02T07:43:17;99645.34;;;16.84;63.28
52953;BME280;38815;55.932;-3.232;2022-11-02T07:45:42;99645.75;;;16.88;62.54
52953;BME280;38815;55.932;-3.232;2022-11-02T07:48:07;99644.09;;;16.92;63.38
52953;BME280;38815;55.932;-3.232;2022-11-02T07:50:32;99642.47;;;16.97;63.65
52953;BME280;38815;55.932;-3.232;2022-11-02T07:52:58;99651.09;;;16.99;63.93
52953;BME280;38815;55.932;-3.232;2022-11-02T07:55:25;99640.81;;;17.01;63.30
52953;BME280;38815;55.932;-3.232;2022-11-02T08:00:23;99645.88;;;17.03;62.02
52953;BME280;38815;55.932;-3.232;2022-11-02T08:02:48;99638.19;;;17.03;61.99
52953;BME280;38815;55.932;-3.232;2022-11-02T08:05:17;99632.56;;;17.03;61.28
52953;BME280;38815;55.932;-3.232;2022-11-02T08:07:42;99636.88;;;17.04;61.43
52953;BME280;38815;55.932;-3.232;2022-11-02T08:10:08;99625.63;;;17.04;61.03
52953;BME280;38815;55.932;-3.232;2022-11-02T08:12:33;99628.44;;;17.04;61.31
52953;BME280;38815;55.932;-3.232;2022-11-02T08:14:58;99637.66;;;17.05;60.84
52953;BME280;38815;55.932;-3.232;2022-11-02T08:17:24;99620.00;;;17.04;60.65
52953;BME280;38815;55.932;-3.232;2022-11-02T08:19:49;99615.88;;;17.05;60.67
52953;BME280;38815;55.932;-3.232;2022-11-02T08:22:14;99625.06;;;17.06;61.02
52953;BME280;38815;55.932;-3.232;2022-11-02T08:24:39;99607.44;;;17.05;61.10
52953;BME280;38815;55.932;-3.232;2022-11-02T08:27:05;99608.94;;;17.06;61.12
52953;BME280;38815;55.932;-3.232;2022-11-02T08:29:30;99603.31;;;17.06;61.19
52953;BME280;38815;55.932;-3.232;2022-11-02T08:31:56;99615.31;;;17.07;61.50
52953;BME280;38815;55.932;-3.232;2022-11-02T08:34:21;99594.28;;;17.08;61.14
52953;BME280;38815;55.932;-3.232;2022-11-02T08:36:46;99591.47;;;17.08;61.03
52953;BME280;38815;55.932;-3.232;2022-11-02T08:39:11;99584.34;;;17.07;60.80
52953;BME280;38815;55.932;-3.232;2022-11-02T08:41:37;99573.09;;;17.07;60.74
52953;BME280;38815;55.932;-3.232;2022-11-02T08:44:02;99583.03;;;17.08;60.52
52953;BME280;38815;55.932;-3.232;2022-11-02T08:46:28;99578.72;;;17.07;60.46
52953;BME280;38815;55.932;-3.232;2022-11-02T08:48:54;99565.94;;;17.06;60.47
52953;BME280;38815;55.932;-3.232;2022-11-02T08:51:19;99575.13;;;17.06;60.30
52953;BME280;38815;55.932;-3.232;2022-11-02T08:53:44;99549.03;;;17.06;60.62
52953;BME280;38815;55.932;-3.232;2022-11-02T08:56:10;99544.72;;;17.05;60.45
52953;BME280;38815;55.932;-3.232;2022-11-02T08:58:35;99529.88;;;17.04;60.58
52953;BME280;38815;55.932;-3.232;2022-11-02T09:01:00;99532.69;;;17.04;60.38
52953;BME280;38815;55.932;-3.232;2022-11-02T09:03:25;99527.06;;;17.04;60.76
52953;BME280;38815;55.932;-3.232;2022-11-02T09:05:55;99521.22;;;17.02;60.65
52953;BME280;38815;55.932;-3.232;2022-11-02T09:08:20;99511.28;;;17.01;60.42
52953;BME280;38815;55.932;-3.232;2022-11-02T09:10:47;99509.22;;;17.02;60.72
52953;BME280;38815;55.932;-3.232;2022-11-02T09:13:13;99500.78;;;17.02;60.54
52953;BME280;38815;55.932;-3.232;2022-11-02T09:15:39;99490.81;;;17.01;60.35
52953;BME280;38815;55.932;-3.232;2022-11-02T09:18:05;99482.38;;;17.01;60.33
52953;BME280;38815;55.932;-3.232;2022-11-02T09:20:31;99482.38;;;17.01;61.26
52953;BME280;38815;55.932;-3.232;2022-11-02T09:22:56;99482.38;;;17.01;60.95
52953;BME280;38815;55.932;-3.232;2022-11-02T09:25:21;99471.09;;;17.01;60.61
52953;BME280;38815;55.932;-3.232;2022-11-02T09:27:50;99471.09;;;17.01;60.37
52953;BME280;38815;55.932;-3.232;2022-11-02T09:30:16;99476.72;;;17.01;60.29
52953;BME280;38815;55.932;-3.232;2022-11-02T09:32:41;99484.44;;;17.00;60.67
52953;BME280;38815;55.932;-3.232;2022-11-02T09:35:08;99478.81;;;17.00;60.75
52953;BME280;38815;55.932;-3.232;2022-11-02T09:37:33;99491.56;;;17.01;60.63
52953;BME280;38815;55.932;-3.232;2022-11-02T09:39:59;99476.72;;;17.01;60.72
52953;BME280;38815;55.932;-3.232;2022-11-02T09:45:05;99475.44;;;17.02;60.74
52953;BME280;38815;55.932;-3.232;2022-11-02T09:47:34;99501.34;;;17.00;61.08
52953;BME280;38815;55.932;-3.232;2022-11-02T09:50:05;99485.59;;;17.05;63.71
52953;BME280;38815;55.932;-3.232;2022-11-02T09:52:31;99506.78;;;17.06;62.96
52953;BME280;38815;55.932;-3.232;2022-11-02T09:55:00;99487.28;;;17.08;61.70
52953;BME280;38815;55.932;-3.232;2022-11-02T09:57:29;99473.97;;;17.08;61.79
52953;BME280;38815;55.932;-3.232;2022-11-02T09:59:54;99477.34;;;17.07;60.99
52953;BME280;38815;55.932;-3.232;2022-11-02T10:05:19;99468.91;;;17.07;62.01
52953;BME280;38815;55.932;-3.232;2022-11-02T10:13:02;99439.00;;;17.04;61.49
52953;BME280;38815;55.932;-3.232;2022-11-02T10:18:00;99374.06;;;17.02;61.93
52953;BME280;38815;55.932;-3.232;2022-11-02T10:23:31;99344.41;;;17.01;61.44
52953;BME280;38815;55.932;-3.232;2022-11-02T10:25:58;99318.31;;;17.00;61.20
52953;BME280;38815;55.932;-3.232;2022-11-02T10:28:25;99314.75;;;17.00;61.18
52953;BME280;38815;55.932;-3.232;2022-11-02T10:30:51;99312.50;;;16.98;61.19
52953;BME280;38815;55.932;-3.232;2022-11-02T10:33:17;99311.72;;;16.98;61.38
52953;BME280;38815;55.932;-3.232;2022-11-02T10:35:46;99317.38;;;16.98;60.98
52953;BME280;38815;55.932;-3.232;2022-11-02T10:45:54;99296.69;;;16.95;61.11
52953;BME280;38815;55.932;-3.232;2022-11-02T10:48:28;99274.94;;;16.96;60.96
52953;BME280;38815;55.932;-3.232;2022-11-02T10:51:09;99252.97;;;16.94;61.30
52953;BME280;38815;55.932;-3.232;2022-11-02T10:56:17;99224.06;;;16.94;61.28
52953;BME280;38815;55.932;-3.232;2022-11-02T11:01:11;99214.16;;;17.00;62.85
52953;BME280;38815;55.932;-3.232;2022-11-02T11:03:53;99211.34;;;17.08;62.34
52953;BME280;38815;55.932;-3.232;2022-11-02T11:06:18;99207.78;;;17.15;61.59
52953;BME280;38815;55.932;-3.232;2022-11-02T11:08:45;99212.84;;;17.16;61.06
52953;BME280;38815;55.932;-3.232;2022-11-02T11:16:38;99202.91;;;17.15;65.36
52953;BME280;38815;55.932;-3.232;2022-11-02T11:19:05;99200.66;;;17.14;64.51
52953;BME280;38815;55.932;-3.232;2022-11-02T11:21:35;99190.50;;;17.11;64.03
52953;BME280;38815;55.932;-3.232;2022-11-02T11:24:10;99186.00;;;17.08;64.14
52953;BME280;38815;55.932;-3.232;2022-11-02T11:26:37;99186.56;;;17.06;64.13
52953;BME280;38815;55.932;-3.232;2022-11-02T11:29:11;99181.50;;;17.05;64.30
52953;BME280;38815;55.932;-3.232;2022-11-02T11:31:47;99172.84;;;17.03;64.02
52953;BME280;38815;55.932;-3.232;2022-11-02T11:34:26;99149.56;;;17.02;63.46
52953;BME280;38815;55.932;-3.232;2022-11-02T11:36:52;99138.88;;;17.01;63.67
52953;BME280;38815;55.932;-3.232;2022-11-02T11:39:28;99113.34;;;16.99;63.73
52953;BME280;38815;55.932;-3.232;2022-11-02T11:41:54;99108.47;;;16.99;63.44
52953;BME280;38815;55.932;-3.232;2022-11-02T11:44:20;99103.41;;;16.98;63.49
52953;BME280;38815;55.932;-3.232;2022-11-02T11:46:49;99098.53;;;16.98;63.25
52953;BME280;38815;55.932;-3.232;2022-11-02T11:49:26;99088.75;;;16.99;63.93
52953;BME280;38815;55.932;-3.232;2022-11-02T11:51:53;99064.94;;;17.00;63.79
52953;BME280;38815;55.932;-3.232;2022-11-02T11:56:45;99038.84;;;17.00;64.02
52953;BME280;38815;55.932;-3.232;2022-11-02T11:59:17;99036.03;;;17.00;63.73
52953;BME280;38815;55.932;-3.232;2022-11-02T12:01:43;99026.06;;;16.99;62.69
52953;BME280;38815;55.932;-3.232;2022-11-02T12:04:08;99000.72;;;16.99;62.75
52953;BME280;38815;55.932;-3.232;2022-11-02T12:09:16;98962.63;;;16.98;62.61
52953;BME280;38815;55.932;-3.232;2022-11-02T12:22:37;98861.13;;;16.96;62.19
52953;BME280;38815;55.932;-3.232;2022-11-02T12:25:16;98845.56;;;16.95;62.44
52953;BME280;38815;55.932;-3.232;2022-11-02T12:48:00;98787.75;;;16.94;62.09
52953;BME280;38815;55.932;-3.232;2022-11-02T12:55:25;98760.34;;;16.94;61.95
52953;BME280;38815;55.932;-3.232;2022-11-02T12:57:58;98729.38;;;16.94;61.89
52953;BME280;38815;55.932;-3.232;2022-11-02T13:00:25;98714.56;;;16.94;61.69
52953;BME280;38815;55.932;-3.232;2022-11-02T13:05:21;98689.22;;;16.94;61.69
52953;BME280;38815;55.932;-3.232;2022-11-02T13:07:49;98687.75;;;16.93;62.02
52953;BME280;38815;55.932;-3.232;2022-11-02T13:10:20;98695.44;;;16.92;61.76
52953;BME280;38815;55.932;-3.232;2022-11-02T13:12:51;98682.09;;;16.93;61.44
52953;BME280;38815;55.932;-3.232;2022-11-02T13:15:18;98686.97;;;16.92;61.61
52953;BME280;38815;55.932;-3.232;2022-11-02T13:17:46;98712.13;;;16.90;61.78
52953;BME280;38815;55.932;-3.232;2022-11-02T13:22:39;98657.19;;;16.89;61.45
52953;BME280;38815;55.932;-3.232;2022-11-02T13:25:15;98646.50;;;16.88;62.05
52953;BME280;38815;55.932;-3.232;2022-11-02T13:28:04;98619.66;;;16.87;61.75
52953;BME280;38815;55.932;-3.232;2022-11-02T13:30:27;98621.75;;;16.86;61.71
52953;BME280;38815;55.932;-3.232;2022-11-02T13:35:26;98612.53;;;16.86;61.86
52953;BME280;38815;55.932;-3.232;2022-11-02T13:37:55;98603.34;;;16.85;61.73
52953;BME280;38815;55.932;-3.232;2022-11-02T13:42:52;98563.94;;;16.85;61.52
52953;BME280;38815;55.932;-3.232;2022-11-02T13:45:29;98556.06;;;16.84;61.49
52953;BME280;38815;55.932;-3.232;2022-11-02T13:48:11;98534.31;;;16.84;61.76
52953;BME280;38815;55.932;-3.232;2022-11-02T13:50:41;98508.22;;;16.84;61.61
52953;BME280;38815;55.932;-3.232;2022-11-02T13:53:11;98494.75;;;16.82;61.63
52953;BME280;38815;55.932;-3.232;2022-11-02T13:55:54;98470.00;;;16.81;61.40
52953;BME280;38815;55.932;-3.232;2022-11-02T13:58:24;98452.38;;;16.80;61.48
52953;BME280;38815;55.932;-3.232;2022-11-02T14:00:50;98448.25;;;16.81;61.34
52953;BME280;38815;55.932;-3.232;2022-11-02T14:03:27;98434.00;;;16.79;61.37
52953;BME280;38815;55.932;-3.232;2022-11-02T14:05:55;98429.84;;;16.80;61.20
52953;BME280;38815;55.932;-3.232;2022-11-02T14:08:35;98431.94;;;16.80;61.33
52953;BME280;38815;55.932;-3.232;2022-11-02T14:16:44;98388.06;;;16.77;61.31
52953;BME280;38815;55.932;-3.232;2022-11-02T14:21:45;98363.31;;;16.75;61.65
52953;BME280;38815;55.932;-3.232;2022-11-02T14:26:58;98332.94;;;16.74;61.28
52953;BME280;38815;55.932;-3.232;2022-11-02T14:37:25;98291.16;;;16.70;61.30
52953;BME280;38815;55.932;-3.232;2022-11-02T14:43:02;98278.41;;;16.69;61.47
52953;BME280;38815;55.932;-3.232;2022-11-02T14:48:00;98253.69;;;16.68;61.32
52953;BME280;38815;55.932;-3.232;2022-11-02T14:50:28;98227.63;;;16.67;61.85
52953;BME280;38815;55.932;-3.232;2022-11-02T14:52:57;98220.47;;;16.66;61.46
52953;BME280;38815;55.932;-3.232;2022-11-02T14:55:26;98190.88;;;16.65;61.26
52953;BME280;38815;55.932;-3.232;2022-11-02T15:00:31;98180.97;;;16.64;61.33
52953;BME280;38815;55.932;-3.232;2022-11-02T15:02:58;98194.28;;;16.64;61.44
52953;BME280;38815;55.932;-3.232;2022-11-02T15:05:37;98178.16;;;16.64;61.46
52953;BME280;38815;55.932;-3.232;2022-11-02T15:08:07;98223.72;;;16.63;61.60
52953;BME280;38815;55.932;-3.232;2022-11-02T15:10:40;98215.13;;;16.61;61.31
52953;BME280;38815;55.932;-3.232;2022-11-02T15:23:40;98182.53;;;16.58;61.83
52953;BME280;38815;55.932;-3.232;2022-11-02T15:26:08;98176.91;;;16.58;61.56